Time,TemperatureF,DewpointF,PressureIn,WindDirection,WindDirectionDegrees,WindSpeedMPH,WindSpeedGustMPH,Humidity,HourlyPrecipIn,Conditions,Clouds,dailyrainin,SoftwareType,DateUTC
2013-09-22 00:01:00,53.9,53.3,29.71,South,172,0.0,0.0,98,0.00,RA,,0.00,WeatherDisplay:10.37,2013-09-22 07:01:00,
2013-09-22 00:06:00,53.7,53.1,29.71,South,172,0.0,0.0,98,0.00,RA,,0.00,WeatherDisplay:10.37,2013-09-22 07:06:00,
2013-09-22 00:11:00,53.8,53.2,29.71,South,172,0.0,0.0,98,0.00,RA,,0.00,WeatherDisplay:10.37,2013-09-22 07:11:00,
2013-09-22 00:16:00,53.7,53.1,29.71,SSE,147,1.2,1.2,98,0.00,CLR,,0.00,WeatherDisplay:10.37,2013-09-22 07:16:00,
2013-09-22 00:21:00,53.5,52.9,29.71,SSE,147,0.0,0.0,98,0.00,CLR,,0.00,WeatherDisplay:10.37,2013-09-22 07:21:00,
2013-09-22 00:26:00,53.4,52.8,29.71,SSE,147,0.0,0.0,98,0.00,CLR,,0.00,WeatherDisplay:10.37,2013-09-22 07:26:00,
2013-09-22 00:31:00,53.4,52.6,29.71,SSE,147,0.0,0.0,97,0.00,CLR,,0.00,WeatherDisplay:10.37,2013-09-22 07:31:00,
2013-09-22 00:36:00,53.3,52.8,29.71,SSE,147,0.0,0.0,98,0.00,CLR,,0.00,WeatherDisplay:10.37,2013-09-22 07:36:00,
2013-09-22 00:41:00,53.4,52.8,29.72,SSE,147,0.0,0.0,98,0.00,CLR,,0.00,WeatherDisplay:10.37,2013-09-22 07:41:00,
2013-09-22 00:46:00,53.3,52.8,29.72,SSE,147,0.0,0.0,98,0.00,CLR,,0.00,WeatherDisplay:10.37,2013-09-22 07:46:00,
2013-09-22 00:51:00,53.4,52.8,29.72,SSE,147,0.0,0.0,98,0.00,CLR,,0.00,WeatherDisplay:10.37,2013-09-22 07:51:00,
2013-09-22 00:56:00,53.4,52.8,29.72,SSE,147,0.0,0.0,98,0.00,CLR,,0.00,WeatherDisplay:10.37,2013-09-22 07:56:00,
2013-09-22 01:01:00,53.4,52.8,29.72,SSE,147,0.0,0.0,98,0.00,CLR,,0.00,WeatherDisplay:10.37,2013-09-22 08:01:00,
2013-09-22 01:06:00,53.5,52.9,29.72,SSE,147,0.0,0.0,98,0.00,CLR,,0.00,WeatherDisplay:10.37,2013-09-22 08:06:00,
2013-09-22 01:11:00,53.7,53.1,29.72,SSE,147,0.0,0.0,98,0.00,CLR,,0.00,WeatherDisplay:10.37,2013-09-22 08:11:00,
2013-09-22 01:16:00,53.9,53.3,29.73,SSE,147,0.0,0.0,98,0.00,CLR,,0.00,WeatherDisplay:10.37,2013-09-22 08:16:00,
2013-09-22 01:21:00,54.0,53.4,29.73,SSE,147,0.0,0.0,98,0.00,CLR,,0.00,WeatherDisplay:10.37,2013-09-22 08:21:00,
2013-09-22 01:26:00,54.2,53.6,29.73,SSE,147,0.0,0.0,98,0.00,CLR,,0.00,WeatherDisplay:10.37,2013-09-22 08:26:00,
2013-09-22 01:31:00,54.3,53.7,29.73,SE,133,2.3,0.0,98,0.00,CLR,,0.00,WeatherDisplay:10.37,2013-09-22 08:31:00,
2013-09-22 01:36:00,54.5,53.9,29.73,SE,133,0.0,0.0,98,0.00,CLR,,0.00,WeatherDisplay:10.37,2013-09-22 08:36:00,
2013-09-22 01:41:00,54.7,54.1,29.73,SE,133,0.0,0.0,98,0.00,CLR,,0.00,WeatherDisplay:10.37,2013-09-22 08:41:00,
2013-09-22 01:46:00,55.0,54.4,29.73,SSW,202,0.0,0.0,98,0.00,CLR,,0.00,WeatherDisplay:10.37,2013-09-22 08:46:00,
2013-09-22 01:51:00,55.4,54.8,29.73,SSE,162,4.6,4.6,98,0.00,CLR,,0.00,WeatherDisplay:10.37,2013-09-22 08:51:00,
2013-09-22 01:56:00,55.7,54.9,29.73,East,83,4.6,4.6,97,0.00,CLR,,0.00,WeatherDisplay:10.37,2013-09-22 08:56:00,
2013-09-22 02:01:00,55.9,55.1,29.73,WSW,239,5.8,5.8,97,0.00,CLR,,0.00,WeatherDisplay:10.37,2013-09-22 09:01:00,
2013-09-22 02:06:00,56.0,55.2,29.73,SSE,162,1.2,1.8,97,0.01,RA,,0.01,WeatherDisplay:10.37,2013-09-22 09:06:00,
2013-09-22 02:11:00,56.0,55.2,29.73,SSW,208,5.5,5.5,97,0.01,RA,,0.01,WeatherDisplay:10.37,2013-09-22 09:11:00,
2013-09-22 02:16:00,56.0,55.2,29.73,SW,222,8.1,8.1,97,0.01,,,0.01,WeatherDisplay:10.37,2013-09-22 09:16:00,
2013-09-22 02:21:00,56.0,55.2,29.73,South,189,6.9,6.9,97,0.01,CLR,,0.01,WeatherDisplay:10.37,2013-09-22 09:21:00,
2013-09-22 02:26:00,56.0,55.2,29.73,ESE,117,9.2,9.2,97,0.01,CLR,,0.01,WeatherDisplay:10.37,2013-09-22 09:26:00,
2013-09-22 02:31:00,56.0,55.2,29.73,SE,130,8.1,8.1,97,0.01,CLR,,0.01,WeatherDisplay:10.37,2013-09-22 09:31:00,
2013-09-22 02:36:00,56.0,55.2,29.73,SSE,152,5.8,5.8,97,0.01,CLR,,0.01,WeatherDisplay:10.37,2013-09-22 09:36:00,
2013-09-22 02:41:00,56.0,55.2,29.73,South,189,4.6,4.6,97,0.01,CLR,,0.01,WeatherDisplay:10.37,2013-09-22 09:41:00,
2013-09-22 02:46:00,56.1,55.3,29.73,SW,219,0.0,0.6,97,0.01,CLR,,0.01,WeatherDisplay:10.37,2013-09-22 09:46:00,
2013-09-22 02:51:00,56.1,55.3,29.73,SW,219,0.0,0.0,97,0.01,CLR,,0.01,WeatherDisplay:10.37,2013-09-22 09:51:00,
2013-09-22 02:56:00,56.1,55.3,29.73,SSW,198,0.0,0.0,97,0.01,CLR,,0.01,WeatherDisplay:10.37,2013-09-22 09:56:00,
2013-09-22 03:01:00,56.1,55.3,29.73,SSW,198,0.0,0.0,97,0.01,CLR,,0.01,WeatherDisplay:10.37,2013-09-22 10:01:00,
2013-09-22 03:06:00,56.1,55.3,29.73,SSW,212,2.3,2.3,97,0.00,CLR,,0.01,WeatherDisplay:10.37,2013-09-22 10:06:00,
2013-09-22 03:11:00,56.1,55.3,29.73,SSW,203,0.0,0.9,97,0.00,CLR,,0.01,WeatherDisplay:10.37,2013-09-22 10:11:00,
2013-09-22 03:16:00,56.1,55.3,29.73,South,179,0.7,0.7,97,0.00,CLR,,0.01,WeatherDisplay:10.37,2013-09-22 10:16:00,
2013-09-22 03:21:00,56.1,55.3,29.73,ESE,112,2.3,2.3,97,0.00,CLR,,0.01,WeatherDisplay:10.37,2013-09-22 10:21:00,
2013-09-22 03:26:00,56.2,55.4,29.73,South,182,2.3,2.3,97,0.00,CLR,,0.01,WeatherDisplay:10.37,2013-09-22 10:26:00,
2013-09-22 03:31:00,56.1,55.3,29.73,SSW,210,0.0,0.1,97,0.00,CLR,,0.01,WeatherDisplay:10.37,2013-09-22 10:31:00,
2013-09-22 03:36:00,56.1,55.3,29.73,SE,145,1.6,2.3,97,0.00,CLR,,0.01,WeatherDisplay:10.37,2013-09-22 10:36:00,
2013-09-22 03:41:00,56.0,55.2,29.73,SSE,148,3.5,0.0,97,0.00,CLR,,0.01,WeatherDisplay:10.37,2013-09-22 10:41:00,
2013-09-22 03:46:00,55.9,55.1,29.73,SSE,148,0.0,0.0,97,0.00,CLR,,0.01,WeatherDisplay:10.37,2013-09-22 10:46:00,
2013-09-22 03:51:00,55.9,55.1,29.73,SE,144,1.6,1.6,97,0.00,CLR,,0.01,WeatherDisplay:10.37,2013-09-22 10:51:00,
2013-09-22 03:58:00,55.9,55.1,29.73,SSW,196,4.6,0.0,97,0.00,CLR,,0.01,WeatherDisplay:10.37,2013-09-22 10:58:00,
2013-09-22 04:03:00,55.9,55.1,29.73,SSE,168,0.0,0.0,97,0.00,CLR,,0.01,WeatherDisplay:10.37,2013-09-22 11:03:00,
2013-09-22 04:08:00,55.9,55.1,29.72,SSE,168,0.0,0.0,97,0.00,CLR,,0.01,WeatherDisplay:10.37,2013-09-22 11:08:00,
2013-09-22 04:13:00,55.9,54.8,29.72,SSE,152,4.6,0.0,96,0.00,CLR,,0.01,WeatherDisplay:10.37,2013-09-22 11:13:00,
2013-09-22 04:18:00,56.0,54.9,29.72,SSW,199,3.2,3.2,96,0.00,CLR,,0.01,WeatherDisplay:10.37,2013-09-22 11:18:00,
2013-09-22 04:23:00,56.0,54.9,29.72,SSW,196,3.5,3.5,96,0.00,CLR,,0.01,WeatherDisplay:10.37,2013-09-22 11:23:00,
2013-09-22 04:28:00,56.1,55.0,29.72,South,188,5.8,5.8,96,0.00,CLR,,0.01,WeatherDisplay:10.37,2013-09-22 11:28:00,
2013-09-22 04:33:00,56.2,55.1,29.72,WSW,248,6.9,6.9,96,0.00,CLR,,0.01,WeatherDisplay:10.37,2013-09-22 11:33:00,
2013-09-22 04:38:00,56.3,55.2,29.72,SW,216,4.6,4.6,96,0.00,CLR,,0.01,WeatherDisplay:10.37,2013-09-22 11:38:00,
2013-09-22 04:43:00,56.2,55.1,29.72,South,184,6.9,6.9,96,0.00,CLR,,0.01,WeatherDisplay:10.37,2013-09-22 11:43:00,
2013-09-22 04:48:00,56.3,55.2,29.72,SSE,151,4.6,4.6,96,0.00,CLR,,0.01,WeatherDisplay:10.37,2013-09-22 11:48:00,
2013-09-22 04:53:00,56.2,55.1,29.72,SW,227,3.5,3.5,96,0.00,CLR,,0.01,WeatherDisplay:10.37,2013-09-22 11:53:00,
2013-09-22 04:58:00,56.2,55.1,29.72,SSW,196,8.1,8.1,96,0.00,CLR,,0.01,WeatherDisplay:10.37,2013-09-22 11:58:00,
2013-09-22 05:03:00,56.3,55.2,29.72,SSW,203,4.6,4.6,96,0.00,CLR,,0.01,WeatherDisplay:10.37,2013-09-22 12:03:00,
2013-09-22 05:08:00,56.2,55.1,29.72,South,172,8.1,8.1,96,0.00,CLR,,0.01,WeatherDisplay:10.37,2013-09-22 12:08:00,
2013-09-22 05:13:00,56.2,55.1,29.71,SSW,192,5.8,5.8,96,0.00,CLR,,0.01,WeatherDisplay:10.37,2013-09-22 12:13:00,
2013-09-22 05:18:00,56.2,55.1,29.71,SSE,167,5.8,5.8,96,0.00,CLR,,0.01,WeatherDisplay:10.37,2013-09-22 12:18:00,
2013-09-22 05:23:00,56.2,55.1,29.71,SSE,164,8.1,8.1,96,0.00,CLR,,0.01,WeatherDisplay:10.37,2013-09-22 12:23:00,
2013-09-22 05:28:00,56.2,55.1,29.71,SSW,208,7.2,7.2,96,0.00,CLR,,0.01,WeatherDisplay:10.37,2013-09-22 12:28:00,
2013-09-22 05:33:00,56.2,54.8,29.71,SSE,161,6.9,6.9,95,0.00,CLR,,0.01,WeatherDisplay:10.37,2013-09-22 12:33:00,
2013-09-22 05:38:00,56.2,54.8,29.71,South,184,9.2,9.2,95,0.00,CLR,,0.01,WeatherDisplay:10.37,2013-09-22 12:38:00,
2013-09-22 05:43:00,56.2,54.8,29.71,South,179,6.7,6.7,95,0.00,CLR,,0.01,WeatherDisplay:10.37,2013-09-22 12:43:00,
2013-09-22 05:48:00,56.2,54.8,29.71,South,186,6.9,6.9,95,0.00,CLR,,0.01,WeatherDisplay:10.37,2013-09-22 12:48:00,
2013-09-22 05:53:00,56.1,55.0,29.71,SSE,152,8.9,8.9,96,0.00,CLR,,0.01,WeatherDisplay:10.37,2013-09-22 12:53:00,
2013-09-22 05:58:00,56.0,54.9,29.71,SSW,192,4.6,4.6,96,0.00,CLR,,0.01,WeatherDisplay:10.37,2013-09-22 12:58:00,
2013-09-22 06:03:00,56.1,55.0,29.72,SSW,196,6.9,6.9,96,0.00,CLR,,0.01,WeatherDisplay:10.37,2013-09-22 13:03:00,
2013-09-22 06:08:00,56.1,55.0,29.72,SSE,164,5.8,5.8,96,0.00,CLR,,0.01,WeatherDisplay:10.37,2013-09-22 13:08:00,
2013-09-22 06:13:00,56.1,55.0,29.72,South,174,4.4,4.4,96,0.00,CLR,,0.01,WeatherDisplay:10.37,2013-09-22 13:13:00,
2013-09-22 06:18:00,56.0,54.9,29.72,SE,138,6.9,6.9,96,0.00,CLR,,0.01,WeatherDisplay:10.37,2013-09-22 13:18:00,
2013-09-22 06:23:00,56.0,54.9,29.72,ESE,116,4.6,4.7,96,0.00,CLR,,0.01,WeatherDisplay:10.37,2013-09-22 13:23:00,
2013-09-22 06:28:00,56.0,54.9,29.71,East,86,3.5,4.2,96,0.00,CLR,,0.01,WeatherDisplay:10.37,2013-09-22 13:28:00,
2013-09-22 06:33:00,56.0,54.9,29.72,South,178,5.8,5.8,96,0.00,CLR,,0.01,WeatherDisplay:10.37,2013-09-22 13:33:00,
2013-09-22 06:38:00,55.9,54.8,29.72,South,169,5.8,5.8,96,0.00,CLR,,0.01,WeatherDisplay:10.37,2013-09-22 13:38:00,
2013-09-22 06:43:00,56.0,54.9,29.72,SSE,161,8.1,8.1,96,0.00,CLR,,0.01,WeatherDisplay:10.37,2013-09-22 13:43:00,
2013-09-22 06:48:00,56.0,54.9,29.71,South,184,4.6,4.6,96,0.00,CLR,,0.01,WeatherDisplay:10.37,2013-09-22 13:48:00,
2013-09-22 06:53:00,56.0,54.9,29.71,ESE,110,5.8,5.8,96,0.00,CLR,,0.01,WeatherDisplay:10.37,2013-09-22 13:53:00,
2013-09-22 06:58:00,56.0,54.9,29.72,South,178,3.5,3.5,96,0.00,CLR,,0.01,WeatherDisplay:10.37,2013-09-22 13:58:00,
2013-09-22 07:03:00,56.0,54.9,29.71,SW,229,3.5,3.5,96,0.00,CLR,,0.01,WeatherDisplay:10.37,2013-09-22 14:03:00,
2013-09-22 07:08:00,56.1,54.7,29.71,SE,133,9.2,9.2,95,0.00,CLR,,0.01,WeatherDisplay:10.37,2013-09-22 14:08:00,
2013-09-22 07:13:00,56.2,54.8,29.70,South,179,6.9,6.9,95,0.00,CLR,,0.01,WeatherDisplay:10.37,2013-09-22 14:13:00,
2013-09-22 07:18:00,56.4,55.0,29.70,SSE,151,9.2,9.2,95,0.00,CLR,,0.01,WeatherDisplay:10.37,2013-09-22 14:18:00,
2013-09-22 07:23:00,56.4,55.0,29.70,SSE,157,5.8,5.8,95,0.00,CLR,,0.01,WeatherDisplay:10.37,2013-09-22 14:23:00,
2013-09-22 07:28:00,56.5,55.1,29.70,South,172,5.8,5.8,95,0.00,CLR,,0.01,WeatherDisplay:10.37,2013-09-22 14:28:00,
2013-09-22 07:34:00,56.5,55.1,29.71,SSW,203,11.4,11.4,95,0.00,CLR,,0.01,WeatherDisplay:10.37,2013-09-22 14:34:00,
2013-09-22 07:39:00,56.5,55.1,29.70,South,191,8.1,8.1,95,0.00,CLR,,0.01,WeatherDisplay:10.37,2013-09-22 14:39:00,
2013-09-22 07:44:00,56.6,54.9,29.70,SSW,193,9.2,9.2,94,0.00,CLR,,0.01,WeatherDisplay:10.37,2013-09-22 14:44:00,
2013-09-22 07:49:00,56.7,55.0,29.70,SSW,200,5.8,5.8,94,0.00,CLR,,0.01,WeatherDisplay:10.37,2013-09-22 14:49:00,
2013-09-22 07:54:00,56.8,55.1,29.70,South,178,5.8,5.8,94,0.00,CLR,,0.01,WeatherDisplay:10.37,2013-09-22 14:54:00,
2013-09-22 07:59:00,57.0,55.3,29.70,SSW,192,6.0,6.0,94,0.00,CLR,,0.01,WeatherDisplay:10.37,2013-09-22 14:59:00,
2013-09-22 08:04:00,57.0,55.0,29.70,ESE,123,11.5,11.5,93,0.00,CLR,,0.01,WeatherDisplay:10.37,2013-09-22 15:04:00,
2013-09-22 08:09:00,57.1,55.1,29.70,South,176,10.4,10.4,93,0.00,CLR,,0.01,WeatherDisplay:10.37,2013-09-22 15:09:00,
2013-09-22 08:14:00,57.2,55.2,29.70,SSE,157,8.1,8.1,93,0.00,CLR,,0.01,WeatherDisplay:10.37,2013-09-22 15:14:00,
2013-09-22 08:19:00,57.2,54.9,29.71,SSW,195,9.2,9.2,92,0.00,CLR,,0.01,WeatherDisplay:10.37,2013-09-22 15:19:00,
2013-09-22 08:24:00,57.2,55.2,29.70,SSW,196,5.8,5.8,93,0.00,CLR,,0.01,WeatherDisplay:10.37,2013-09-22 15:24:00,
2013-09-22 08:29:00,57.2,54.9,29.70,South,174,9.2,9.2,92,0.00,CLR,,0.01,WeatherDisplay:10.37,2013-09-22 15:29:00,
2013-09-22 08:34:00,57.4,55.1,29.70,SW,219,8.1,8.1,92,0.00,CLR,,0.01,WeatherDisplay:10.37,2013-09-22 15:34:00,
2013-09-22 08:39:00,57.2,55.2,29.70,SSE,157,9.0,9.0,93,0.00,CLR,,0.01,WeatherDisplay:10.37,2013-09-22 15:39:00,
2013-09-22 08:44:00,57.4,55.1,29.70,SSE,160,9.2,9.2,92,0.00,CLR,,0.01,WeatherDisplay:10.37,2013-09-22 15:44:00,
2013-09-22 08:49:00,57.3,55.0,29.70,SSE,152,9.4,9.4,92,0.00,CLR,,0.01,WeatherDisplay:10.37,2013-09-22 15:49:00,
2013-09-22 08:54:00,57.4,55.1,29.70,SW,220,10.5,10.5,92,0.00,CLR,,0.01,WeatherDisplay:10.37,2013-09-22 15:54:00,
2013-09-22 08:59:00,57.4,55.1,29.70,SW,215,8.1,8.1,92,0.00,CLR,,0.01,WeatherDisplay:10.37,2013-09-22 15:59:00,
2013-09-22 09:04:00,57.3,54.7,29.70,NW,325,11.5,11.5,91,0.00,CLR,,0.01,WeatherDisplay:10.37,2013-09-22 16:04:00,
2013-09-22 09:09:00,57.4,55.1,29.70,South,184,8.1,8.1,92,0.00,CLR,,0.01,WeatherDisplay:10.37,2013-09-22 16:09:00,
2013-09-22 09:14:00,57.4,55.1,29.70,SE,137,8.1,8.1,92,0.00,CLR,,0.01,WeatherDisplay:10.37,2013-09-22 16:14:00,
2013-09-22 09:19:00,57.4,55.1,29.70,SSW,195,11.5,11.5,92,0.00,CLR,,0.01,WeatherDisplay:10.37,2013-09-22 16:19:00,
2013-09-22 09:24:00,57.5,55.2,29.70,South,182,8.5,8.5,92,0.00,CLR,,0.01,WeatherDisplay:10.37,2013-09-22 16:24:00,
2013-09-22 09:29:00,57.5,55.2,29.69,SSE,151,8.1,8.1,92,0.00,CLR,,0.01,WeatherDisplay:10.37,2013-09-22 16:29:00,
2013-09-22 09:34:00,57.4,54.8,29.69,ESE,112,10.4,10.4,91,0.00,CLR,,0.01,WeatherDisplay:10.37,2013-09-22 16:34:00,
2013-09-22 09:39:00,57.6,55.0,29.69,South,172,8.1,8.1,91,0.00,CLR,,0.01,WeatherDisplay:10.37,2013-09-22 16:39:00,
2013-09-22 09:44:00,57.8,55.2,29.69,SSW,208,6.9,6.9,91,0.00,CLR,,0.01,WeatherDisplay:10.37,2013-09-22 16:44:00,
2013-09-22 09:49:00,57.8,54.9,29.69,WSW,251,10.4,10.4,90,0.00,CLR,,0.01,WeatherDisplay:10.37,2013-09-22 16:49:00,
2013-09-22 09:54:00,57.9,54.7,29.69,SW,217,12.7,12.7,89,0.00,CLR,,0.01,WeatherDisplay:10.37,2013-09-22 16:54:00,
2013-09-22 09:59:00,58.0,54.8,29.69,South,175,10.4,10.4,89,0.00,CLR,,0.01,WeatherDisplay:10.37,2013-09-22 16:59:00,
2013-09-22 10:04:00,58.3,55.1,29.69,SSW,202,6.9,6.9,89,0.00,CLR,,0.01,WeatherDisplay:10.37,2013-09-22 17:04:00,
2013-09-22 10:09:00,58.3,54.8,29.69,SSE,148,12.4,12.4,88,0.00,CLR,,0.01,WeatherDisplay:10.37,2013-09-22 17:09:00,
2013-09-22 10:14:00,58.5,54.6,29.69,South,175,13.8,13.8,87,0.00,CLR,,0.01,WeatherDisplay:10.37,2013-09-22 17:14:00,
2013-09-22 10:19:00,58.7,54.5,29.69,SE,133,16.1,16.1,86,0.00,CLR,,0.01,WeatherDisplay:10.37,2013-09-22 17:19:00,
2013-09-22 10:24:00,58.8,54.9,29.69,SE,140,9.2,9.2,87,0.00,CLR,,0.01,WeatherDisplay:10.37,2013-09-22 17:24:00,
2013-09-22 10:29:00,58.8,54.6,29.69,SSE,165,13.8,13.8,86,0.00,CLR,,0.01,WeatherDisplay:10.37,2013-09-22 17:29:00,
2013-09-22 10:34:00,58.9,55.0,29.69,SW,230,10.5,10.5,87,0.00,CLR,,0.01,WeatherDisplay:10.37,2013-09-22 17:34:00,
2013-09-22 10:39:00,58.8,54.6,29.69,SSE,165,10.4,10.4,86,0.00,CLR,,0.01,WeatherDisplay:10.37,2013-09-22 17:39:00,
2013-09-22 10:44:00,58.8,54.9,29.68,South,186,12.7,12.7,87,0.00,CLR,,0.01,WeatherDisplay:10.37,2013-09-22 17:44:00,
2013-09-22 10:49:00,58.8,54.6,29.68,SSE,154,10.4,10.4,86,0.00,CLR,,0.01,WeatherDisplay:10.37,2013-09-22 17:49:00,
2013-09-22 10:54:00,59.0,54.5,29.68,South,174,11.5,11.5,85,0.00,CLR,,0.01,WeatherDisplay:10.37,2013-09-22 17:54:00,
2013-09-22 10:59:00,58.8,54.3,29.68,South,178,15.0,15.0,85,0.00,CLR,,0.01,WeatherDisplay:10.37,2013-09-22 17:59:00,
2013-09-22 11:04:00,59.0,54.5,29.68,SSE,150,10.4,10.4,85,0.00,CLR,,0.01,WeatherDisplay:10.37,2013-09-22 18:04:00,
2013-09-22 11:09:00,59.0,54.2,29.67,SSW,195,12.7,12.7,84,0.00,CLR,,0.01,WeatherDisplay:10.37,2013-09-22 18:09:00,
2013-09-22 11:15:00,59.1,53.9,29.67,SSE,151,18.4,18.4,83,0.00,CLR,,0.01,WeatherDisplay:10.37,2013-09-22 18:15:00,
2013-09-22 11:20:00,59.3,53.8,29.67,SSE,167,18.4,18.4,82,0.00,CLR,,0.01,WeatherDisplay:10.37,2013-09-22 18:20:00,
2013-09-22 11:25:00,59.3,53.8,29.67,ESE,106,18.4,18.4,82,0.00,CLR,,0.01,WeatherDisplay:10.37,2013-09-22 18:25:00,
2013-09-22 11:30:00,59.4,53.6,29.66,SSE,164,15.0,15.0,81,0.00,CLR,,0.01,WeatherDisplay:10.37,2013-09-22 18:30:00,
2013-09-22 11:35:00,59.5,54.0,29.66,SSW,203,8.8,8.8,82,0.00,CLR,,0.01,WeatherDisplay:10.37,2013-09-22 18:35:00,
2013-09-22 11:40:00,59.5,54.0,29.66,SSW,205,18.4,18.4,82,0.00,CLR,,0.01,WeatherDisplay:10.37,2013-09-22 18:40:00,
2013-09-22 11:45:00,59.4,53.9,29.65,SE,134,11.6,11.6,82,0.00,CLR,,0.01,WeatherDisplay:10.37,2013-09-22 18:45:00,
2013-09-22 11:50:00,59.5,54.7,29.65,SW,224,15.0,15.0,84,0.00,CLR,,0.01,WeatherDisplay:10.37,2013-09-22 18:50:00,
2013-09-22 11:55:00,59.4,54.6,29.65,SSW,195,17.3,17.3,84,0.00,CLR,,0.01,WeatherDisplay:10.37,2013-09-22 18:55:00,
2013-09-22 12:00:00,59.6,54.4,29.65,SE,144,13.8,13.8,83,0.00,CLR,,0.01,WeatherDisplay:10.37,2013-09-22 19:00:00,
2013-09-22 12:05:00,59.7,54.5,29.65,SW,226,12.8,12.8,83,0.00,CLR,,0.01,WeatherDisplay:10.37,2013-09-22 19:05:00,
2013-09-22 12:10:00,60.2,55.0,29.64,East,95,9.2,9.2,83,0.00,CLR,,0.01,WeatherDisplay:10.37,2013-09-22 19:10:00,
2013-09-22 12:15:00,60.3,54.1,29.64,South,182,26.5,26.5,80,0.00,CLR,,0.01,WeatherDisplay:10.37,2013-09-22 19:15:00,
2013-09-22 12:20:00,60.3,54.4,29.65,South,179,15.0,15.0,81,0.00,CLR,,0.01,WeatherDisplay:10.37,2013-09-22 19:20:00,
2013-09-22 12:25:00,60.4,54.5,29.64,South,185,11.5,11.6,81,0.00,CLR,,0.01,WeatherDisplay:10.37,2013-09-22 19:25:00,
2013-09-22 12:30:00,60.5,55.0,29.64,East,93,10.3,10.3,82,0.00,CLR,,0.01,WeatherDisplay:10.37,2013-09-22 19:30:00,
2013-09-22 12:36:00,60.0,54.8,29.63,WSW,247,20.1,20.1,83,0.00,CLR,,0.01,WeatherDisplay:10.37,2013-09-22 19:36:00,
2013-09-22 12:42:00,59.8,54.6,29.63,SSE,160,18.4,18.4,83,0.00,CLR,,0.01,WeatherDisplay:10.37,2013-09-22 19:42:00,
2013-09-22 12:47:00,60.2,55.0,29.62,SSE,161,19.6,19.6,83,0.00,CLR,,0.01,WeatherDisplay:10.37,2013-09-22 19:47:00,
2013-09-22 12:52:00,60.5,54.6,29.62,South,185,21.9,21.9,81,0.00,CLR,,0.01,WeatherDisplay:10.37,2013-09-22 19:52:00,
2013-09-22 12:57:00,60.9,55.0,29.62,SW,220,23.0,23.0,81,0.00,CLR,,0.01,WeatherDisplay:10.37,2013-09-22 19:57:00,
2013-09-22 13:02:00,60.6,54.4,29.62,South,181,13.2,13.2,80,0.00,CLR,,0.01,WeatherDisplay:10.37,2013-09-22 20:02:00,
2013-09-22 13:07:00,60.4,54.5,29.63,South,171,19.6,19.6,81,0.00,CLR,,0.01,WeatherDisplay:10.37,2013-09-22 20:07:00,
2013-09-22 13:12:00,59.8,54.6,29.63,SE,144,16.1,16.1,83,0.00,CLR,,0.01,WeatherDisplay:10.37,2013-09-22 20:12:00,
2013-09-22 13:17:00,59.9,55.4,29.63,South,182,13.8,13.8,85,0.00,CLR,,0.01,WeatherDisplay:10.37,2013-09-22 20:17:00,
2013-09-22 13:22:00,59.8,55.6,29.62,South,189,11.5,11.5,86,0.01,RA,,0.02,WeatherDisplay:10.37,2013-09-22 20:22:00,
2013-09-22 13:27:00,59.4,55.8,29.62,SSE,154,13.8,13.8,88,0.01,RA,,0.02,WeatherDisplay:10.37,2013-09-22 20:27:00,
2013-09-22 13:32:00,59.4,56.5,29.62,West,263,13.8,13.8,90,0.01,CLR,,0.02,WeatherDisplay:10.37,2013-09-22 20:32:00,
2013-09-22 13:37:00,59.4,56.2,29.63,SSW,205,10.4,10.4,89,0.01,CLR,,0.02,WeatherDisplay:10.37,2013-09-22 20:37:00,
2013-09-22 13:42:00,59.5,56.3,29.62,South,184,10.4,10.4,89,0.01,CLR,,0.02,WeatherDisplay:10.37,2013-09-22 20:42:00,
2013-09-22 13:47:00,59.5,56.3,29.63,ENE,65,4.6,4.6,89,0.01,CLR,,0.02,WeatherDisplay:10.37,2013-09-22 20:47:00,
2013-09-22 13:52:00,59.7,56.5,29.63,SW,219,6.9,6.9,89,0.01,CLR,,0.02,WeatherDisplay:10.37,2013-09-22 20:52:00,
2013-09-22 13:57:00,59.7,56.1,29.62,SSW,199,12.7,12.7,88,0.01,CLR,,0.02,WeatherDisplay:10.37,2013-09-22 20:57:00,
2013-09-22 14:02:00,60.0,56.4,29.62,SSE,161,12.7,12.7,88,0.01,CLR,,0.02,WeatherDisplay:10.37,2013-09-22 21:02:00,
2013-09-22 14:07:00,60.2,56.0,29.62,South,184,15.0,15.0,86,0.01,CLR,,0.02,WeatherDisplay:10.37,2013-09-22 21:07:00,
2013-09-22 14:12:00,60.5,56.6,29.63,WSW,251,16.1,16.1,87,0.01,CLR,,0.02,WeatherDisplay:10.37,2013-09-22 21:12:00,
2013-09-22 14:17:00,60.2,56.3,29.63,SW,224,13.8,13.8,87,0.01,CLR,,0.02,WeatherDisplay:10.37,2013-09-22 21:17:00,
2013-09-22 14:22:00,59.9,55.7,29.62,SE,137,18.4,18.4,86,0.00,CLR,,0.02,WeatherDisplay:10.37,2013-09-22 21:22:00,
2013-09-22 14:27:00,60.1,56.2,29.62,SSE,164,13.8,13.8,87,0.00,CLR,,0.02,WeatherDisplay:10.37,2013-09-22 21:27:00,
2013-09-22 14:32:00,60.3,56.1,29.62,SW,223,12.7,12.7,86,0.00,CLR,,0.02,WeatherDisplay:10.37,2013-09-22 21:32:00,
2013-09-22 14:37:00,60.5,56.6,29.62,South,174,10.4,10.4,87,0.00,CLR,,0.02,WeatherDisplay:10.37,2013-09-22 21:37:00,
2013-09-22 14:42:00,60.5,56.3,29.63,SW,216,10.4,10.4,86,0.00,CLR,,0.02,WeatherDisplay:10.37,2013-09-22 21:42:00,
2013-09-22 14:47:00,60.4,56.8,29.62,South,189,18.4,18.4,88,0.01,RA,,0.03,WeatherDisplay:10.37,2013-09-22 21:47:00,
2013-09-22 14:52:00,60.0,57.1,29.63,SSW,209,8.1,8.1,90,0.02,RA,,0.04,WeatherDisplay:10.37,2013-09-22 21:52:00,
2013-09-22 14:57:00,59.8,57.8,29.63,SSW,208,8.1,8.1,93,0.02,RA,,0.04,WeatherDisplay:10.37,2013-09-22 21:57:00,
2013-09-22 15:02:00,59.5,57.2,29.63,South,169,15.0,15.0,92,0.02,,,0.04,WeatherDisplay:10.37,2013-09-22 22:02:00,
2013-09-22 15:07:00,59.5,57.5,29.64,SE,143,12.7,12.7,93,0.02,CLR,,0.04,WeatherDisplay:10.37,2013-09-22 22:07:00,
2013-09-22 15:12:00,59.5,57.5,29.64,South,189,16.1,16.1,93,0.02,CLR,,0.04,WeatherDisplay:10.37,2013-09-22 22:12:00,
2013-09-22 15:17:00,59.5,57.8,29.64,SE,138,11.5,11.5,94,0.02,CLR,,0.04,WeatherDisplay:10.37,2013-09-22 22:17:00,
2013-09-22 15:22:00,59.6,57.9,29.64,SSE,155,15.0,15.0,94,0.02,CLR,,0.04,WeatherDisplay:10.37,2013-09-22 22:22:00,
2013-09-22 15:28:00,59.8,58.1,29.64,SSW,193,9.2,9.2,94,0.02,CLR,,0.04,WeatherDisplay:10.37,2013-09-22 22:28:00,
2013-09-22 15:33:00,59.9,57.6,29.65,SSW,206,9.2,9.2,92,0.02,CLR,,0.04,WeatherDisplay:10.37,2013-09-22 22:33:00,
2013-09-22 15:38:00,60.0,57.7,29.65,South,178,12.7,12.7,92,0.02,CLR,,0.04,WeatherDisplay:10.37,2013-09-22 22:38:00,
2013-09-22 15:43:00,60.1,57.8,29.65,SSW,213,8.1,8.1,92,0.02,CLR,,0.04,WeatherDisplay:10.37,2013-09-22 22:43:00,
2013-09-22 15:48:00,60.2,58.2,29.65,South,186,8.1,8.1,93,0.01,CLR,,0.04,WeatherDisplay:10.37,2013-09-22 22:48:00,
2013-09-22 15:53:00,60.2,57.9,29.65,South,172,12.0,12.0,92,0.00,CLR,,0.04,WeatherDisplay:10.37,2013-09-22 22:53:00,
2013-09-22 15:58:00,60.3,58.3,29.65,SSW,193,9.2,9.2,93,0.00,CLR,,0.04,WeatherDisplay:10.37,2013-09-22 22:58:00,
2013-09-22 16:03:00,60.3,58.3,29.65,SSW,198,8.1,8.1,93,0.00,CLR,,0.04,WeatherDisplay:10.37,2013-09-22 23:03:00,
2013-09-22 16:08:00,60.2,58.5,29.65,SSE,160,10.4,10.4,94,0.00,CLR,,0.04,WeatherDisplay:10.37,2013-09-22 23:08:00,
2013-09-22 16:13:00,60.2,58.8,29.66,SSE,160,10.4,10.4,95,0.00,CLR,,0.04,WeatherDisplay:10.37,2013-09-22 23:13:00,
2013-09-22 16:18:00,60.1,58.7,29.66,SSE,155,9.2,9.2,95,0.00,CLR,,0.04,WeatherDisplay:10.37,2013-09-22 23:18:00,
2013-09-22 16:23:00,60.1,58.7,29.66,South,189,8.1,8.1,95,0.00,CLR,,0.04,WeatherDisplay:10.37,2013-09-22 23:23:00,
2013-09-22 16:28:00,60.2,58.8,29.66,South,175,9.2,9.2,95,0.00,CLR,,0.04,WeatherDisplay:10.37,2013-09-22 23:28:00,
2013-09-22 16:33:00,60.2,58.8,29.66,SSW,198,5.5,5.5,95,0.00,CLR,,0.04,WeatherDisplay:10.37,2013-09-22 23:33:00,
2013-09-22 16:38:00,60.5,58.8,29.66,SSE,165,8.1,8.1,94,0.00,CLR,,0.04,WeatherDisplay:10.37,2013-09-22 23:38:00,
2013-09-22 16:43:00,60.5,59.1,29.66,South,171,5.8,5.8,95,0.00,CLR,,0.04,WeatherDisplay:10.37,2013-09-22 23:43:00,
2013-09-22 16:48:00,60.7,59.0,29.66,South,178,6.1,6.1,94,0.00,CLR,,0.04,WeatherDisplay:10.37,2013-09-22 23:48:00,
2013-09-22 16:53:00,60.9,59.2,29.67,SSE,168,5.8,5.8,94,0.00,CLR,,0.04,WeatherDisplay:10.37,2013-09-22 23:53:00,
2013-09-22 16:58:00,61.0,58.0,29.67,WNW,288,9.2,9.2,90,0.00,CLR,,0.04,WeatherDisplay:10.37,2013-09-22 23:58:00,
2013-09-22 17:03:00,61.2,58.9,29.67,South,172,5.8,5.8,92,0.00,CLR,,0.04,WeatherDisplay:10.37,2013-09-23 00:03:00,
2013-09-22 17:08:00,61.0,59.3,29.67,SSW,196,8.1,8.1,94,0.00,CLR,,0.04,WeatherDisplay:10.37,2013-09-23 00:08:00,
2013-09-22 17:13:00,60.8,59.1,29.67,SSE,157,10.4,10.4,94,0.00,CLR,,0.04,WeatherDisplay:10.37,2013-09-23 00:13:00,
2013-09-22 17:18:00,60.9,59.2,29.67,ESE,103,7.6,7.6,94,0.00,CLR,,0.04,WeatherDisplay:10.37,2013-09-23 00:18:00,
2013-09-22 17:24:00,61.1,59.1,29.67,SSE,161,9.2,9.2,93,0.00,CLR,,0.04,WeatherDisplay:10.37,2013-09-23 00:24:00,
2013-09-22 17:29:00,61.0,59.3,29.67,South,171,8.1,8.1,94,0.00,CLR,,0.04,WeatherDisplay:10.37,2013-09-23 00:29:00,
2013-09-22 17:34:00,60.8,59.1,29.67,South,175,9.2,9.2,94,0.00,CLR,,0.04,WeatherDisplay:10.37,2013-09-23 00:34:00,
2013-09-22 17:39:00,60.7,59.0,29.67,SSE,168,9.2,9.2,94,0.00,CLR,,0.04,WeatherDisplay:10.37,2013-09-23 00:39:00,
2013-09-22 17:44:00,60.8,59.1,29.67,SE,130,5.8,5.8,94,0.00,CLR,,0.04,WeatherDisplay:10.37,2013-09-23 00:44:00,
2013-09-22 17:49:00,60.7,59.0,29.67,SSW,213,12.7,12.7,94,0.00,CLR,,0.04,WeatherDisplay:10.37,2013-09-23 00:49:00,
2013-09-22 17:54:00,60.8,58.8,29.68,South,172,9.2,9.2,93,0.00,CLR,,0.04,WeatherDisplay:10.37,2013-09-23 00:54:00,
2013-09-22 17:59:00,60.9,58.3,29.68,South,175,5.8,5.8,91,0.00,CLR,,0.04,WeatherDisplay:10.37,2013-09-23 00:59:00,
2013-09-22 18:04:00,61.1,58.1,29.68,South,176,10.4,10.4,90,0.00,CLR,,0.04,WeatherDisplay:10.37,2013-09-23 01:04:00,
2013-09-22 18:09:00,61.2,58.2,29.68,South,174,9.2,9.2,90,0.00,CLR,,0.04,WeatherDisplay:10.37,2013-09-23 01:09:00,
2013-09-22 18:14:00,61.2,58.2,29.69,South,176,5.8,5.8,90,0.00,CLR,,0.04,WeatherDisplay:10.37,2013-09-23 01:14:00,
2013-09-22 18:19:00,61.2,58.2,29.69,SSW,195,11.5,11.5,90,0.00,CLR,,0.04,WeatherDisplay:10.37,2013-09-23 01:19:00,
2013-09-22 18:24:00,61.2,57.9,29.69,South,184,9.2,9.2,89,0.00,CLR,,0.04,WeatherDisplay:10.37,2013-09-23 01:24:00,
2013-09-22 18:29:00,61.1,58.1,29.69,SSW,213,9.2,9.2,90,0.00,CLR,,0.04,WeatherDisplay:10.37,2013-09-23 01:29:00,
2013-09-22 18:34:00,60.9,57.9,29.69,South,182,6.9,6.9,90,0.00,CLR,,0.04,WeatherDisplay:10.37,2013-09-23 01:34:00,
2013-09-22 18:39:00,60.9,58.3,29.69,South,179,5.8,5.8,91,0.00,CLR,,0.04,WeatherDisplay:10.37,2013-09-23 01:39:00,
2013-09-22 18:44:00,60.8,58.2,29.69,SW,236,8.1,8.1,91,0.00,CLR,,0.04,WeatherDisplay:10.37,2013-09-23 01:44:00,
2013-09-22 18:49:00,60.8,58.2,29.70,WSW,253,4.6,4.6,91,0.00,CLR,,0.04,WeatherDisplay:10.37,2013-09-23 01:49:00,
2013-09-22 18:54:00,60.8,58.2,29.70,WSW,239,5.8,5.8,91,0.00,CLR,,0.04,WeatherDisplay:10.37,2013-09-23 01:54:00,
2013-09-22 18:59:00,60.9,57.9,29.70,WNW,288,4.6,0.0,90,0.00,CLR,,0.04,WeatherDisplay:10.37,2013-09-23 01:59:00,
2013-09-22 19:05:00,60.9,58.3,29.71,NNW,337,1.2,1.2,91,0.00,CLR,,0.04,WeatherDisplay:10.37,2013-09-23 02:05:00,
2013-09-22 19:10:00,60.7,58.1,29.71,WNW,299,0.0,0.0,91,0.00,CLR,,0.04,WeatherDisplay:10.37,2013-09-23 02:10:00,
2013-09-22 19:15:00,60.5,57.6,29.71,WNW,299,0.0,0.0,90,0.00,CLR,,0.04,WeatherDisplay:10.37,2013-09-23 02:15:00,
2013-09-22 19:20:00,60.4,57.1,29.72,SSW,196,3.5,3.5,89,0.00,CLR,,0.04,WeatherDisplay:10.37,2013-09-23 02:20:00,
2013-09-22 19:25:00,60.2,56.6,29.72,SSW,192,3.5,3.5,88,0.00,CLR,,0.04,WeatherDisplay:10.37,2013-09-23 02:25:00,
2013-09-22 19:30:00,60.1,56.5,29.72,South,191,6.9,6.9,88,0.00,CLR,,0.04,WeatherDisplay:10.37,2013-09-23 02:30:00,
2013-09-22 19:35:00,60.1,56.5,29.72,South,188,6.9,6.9,88,0.00,CLR,,0.04,WeatherDisplay:10.37,2013-09-23 02:35:00,
2013-09-22 19:40:00,60.2,56.3,29.73,SSW,192,6.9,6.9,87,0.00,CLR,,0.04,WeatherDisplay:10.37,2013-09-23 02:40:00,
2013-09-22 19:45:00,60.2,56.6,29.73,SW,220,3.5,3.5,88,0.00,CLR,,0.04,WeatherDisplay:10.37,2013-09-23 02:45:00,
2013-09-22 19:50:00,60.3,57.0,29.73,SW,220,0.0,0.0,89,0.00,CLR,,0.04,WeatherDisplay:10.37,2013-09-23 02:50:00,
2013-09-22 19:55:00,59.9,56.0,29.74,South,191,9.2,9.2,87,0.00,CLR,,0.04,WeatherDisplay:10.37,2013-09-23 02:55:00,
2013-09-22 20:00:00,59.8,56.6,29.74,SSE,158,5.5,5.5,89,0.01,RA,,0.05,WeatherDisplay:10.37,2013-09-23 03:00:00,
2013-09-22 20:05:00,59.5,56.6,29.74,SSE,160,5.8,5.8,90,0.01,RA,,0.05,WeatherDisplay:10.37,2013-09-23 03:05:00,
2013-09-22 20:10:00,59.1,56.8,29.74,South,181,3.1,3.1,92,0.01,,,0.05,WeatherDisplay:10.37,2013-09-23 03:10:00,
2013-09-22 20:15:00,58.9,56.6,29.74,SE,134,3.5,3.5,92,0.01,CLR,,0.05,WeatherDisplay:10.37,2013-09-23 03:15:00,
2013-09-22 20:20:00,58.8,57.1,29.74,South,179,2.3,2.3,94,0.01,CLR,,0.05,WeatherDisplay:10.37,2013-09-23 03:20:00,
2013-09-22 20:25:00,58.9,57.5,29.75,SE,131,3.5,3.5,95,0.01,CLR,,0.05,WeatherDisplay:10.37,2013-09-23 03:25:00,
2013-09-22 20:30:00,59.0,57.3,29.75,South,169,0.0,0.0,94,0.01,CLR,,0.05,WeatherDisplay:10.37,2013-09-23 03:30:00,
2013-09-22 20:35:00,59.0,57.6,29.75,SSW,203,1.1,1.1,95,0.01,CLR,,0.05,WeatherDisplay:10.37,2013-09-23 03:35:00,
2013-09-22 20:40:00,59.1,57.4,29.75,SW,229,0.0,0.1,94,0.01,CLR,,0.05,WeatherDisplay:10.37,2013-09-23 03:40:00,
2013-09-22 20:45:00,59.1,57.4,29.75,West,260,5.8,5.8,94,0.01,CLR,,0.05,WeatherDisplay:10.37,2013-09-23 03:45:00,
2013-09-22 20:50:00,59.3,57.3,29.75,SSW,198,9.2,9.2,93,0.01,CLR,,0.05,WeatherDisplay:10.37,2013-09-23 03:50:00,
2013-09-22 20:55:00,59.3,57.3,29.75,South,179,9.2,9.2,93,0.01,CLR,,0.05,WeatherDisplay:10.37,2013-09-23 03:55:00,
2013-09-22 21:00:00,59.2,57.5,29.76,South,176,8.1,8.1,94,0.00,CLR,,0.05,WeatherDisplay:10.37,2013-09-23 04:00:00,
2013-09-22 21:01:00,59.2,57.5,29.76,SE,141,10.9,10.9,94,0.00,CLR,,0.05,WeatherDisplay:10.37,2013-09-23 04:01:00,
2013-09-22 21:06:00,59.0,57.0,29.76,WNW,291,9.2,9.2,93,0.00,CLR,,0.05,WeatherDisplay:10.37,2013-09-23 04:06:00,
2013-09-22 21:11:00,59.0,57.0,29.76,SSW,209,6.9,6.9,93,0.00,CLR,,0.05,WeatherDisplay:10.37,2013-09-23 04:11:00,
2013-09-22 21:16:00,59.0,57.0,29.76,SSW,199,6.9,6.9,93,0.00,CLR,,0.05,WeatherDisplay:10.37,2013-09-23 04:16:00,
2013-09-22 21:21:00,58.9,56.9,29.77,SSW,198,3.5,3.5,93,0.00,CLR,,0.05,WeatherDisplay:10.37,2013-09-23 04:21:00,
2013-09-22 21:26:00,58.8,56.8,29.77,SSE,161,9.2,9.2,93,0.00,CLR,,0.05,WeatherDisplay:10.37,2013-09-23 04:26:00,
2013-09-22 21:31:00,58.7,57.0,29.77,SE,145,3.5,3.5,94,0.00,CLR,,0.05,WeatherDisplay:10.37,2013-09-23 04:31:00,
2013-09-22 21:36:00,58.4,56.7,29.77,South,181,2.3,2.3,94,0.00,CLR,,0.05,WeatherDisplay:10.37,2013-09-23 04:36:00,
2013-09-22 21:41:00,58.2,56.5,29.77,SSW,210,5.8,5.8,94,0.00,CLR,,0.05,WeatherDisplay:10.37,2013-09-23 04:41:00,
2013-09-22 21:46:00,58.1,56.4,29.77,South,184,5.8,5.8,94,0.00,CLR,,0.05,WeatherDisplay:10.37,2013-09-23 04:46:00,
2013-09-22 21:51:00,58.1,56.4,29.77,SW,216,5.8,5.8,94,0.00,CLR,,0.05,WeatherDisplay:10.37,2013-09-23 04:51:00,
2013-09-22 21:56:00,58.0,56.3,29.77,South,185,8.1,8.1,94,0.00,CLR,,0.05,WeatherDisplay:10.37,2013-09-23 04:56:00,
2013-09-22 22:01:00,57.9,56.5,29.77,SSE,168,3.5,3.5,95,0.00,CLR,,0.05,WeatherDisplay:10.37,2013-09-23 05:01:00,
2013-09-22 22:06:00,57.7,56.3,29.77,South,191,1.2,1.2,95,0.00,CLR,,0.05,WeatherDisplay:10.37,2013-09-23 05:06:00,
2013-09-22 22:11:00,57.5,56.1,29.77,South,178,5.8,5.8,95,0.00,CLR,,0.05,WeatherDisplay:10.37,2013-09-23 05:11:00,
2013-09-22 22:16:00,57.4,56.0,29.77,SSW,208,0.0,0.0,95,0.00,CLR,,0.05,WeatherDisplay:10.37,2013-09-23 05:16:00,
2013-09-22 22:21:00,57.3,55.9,29.77,South,188,0.0,0.0,95,0.00,CLR,,0.05,WeatherDisplay:10.37,2013-09-23 05:21:00,
2013-09-22 22:26:00,57.0,55.6,29.78,SSE,152,2.9,2.9,95,0.00,CLR,,0.05,WeatherDisplay:10.37,2013-09-23 05:26:00,
2013-09-22 22:31:00,56.5,55.4,29.78,SSE,147,0.0,0.0,96,0.00,CLR,,0.05,WeatherDisplay:10.37,2013-09-23 05:31:00,
2013-09-22 22:36:00,56.2,55.1,29.78,SSE,147,0.0,0.0,96,0.00,CLR,,0.05,WeatherDisplay:10.37,2013-09-23 05:36:00,
2013-09-22 22:41:00,56.1,55.0,29.79,SSE,147,0.0,0.0,96,0.00,CLR,,0.05,WeatherDisplay:10.37,2013-09-23 05:41:00,
2013-09-22 22:46:00,56.0,54.9,29.79,South,184,1.2,1.2,96,0.00,CLR,,0.05,WeatherDisplay:10.37,2013-09-23 05:46:00,
2013-09-22 22:51:00,56.1,55.0,29.79,SSW,192,0.0,0.0,96,0.00,CLR,,0.05,WeatherDisplay:10.37,2013-09-23 05:51:00,
2013-09-22 22:56:00,56.2,55.1,29.79,SE,136,3.5,3.5,96,0.00,CLR,,0.05,WeatherDisplay:10.37,2013-09-23 05:56:00,
2013-09-22 23:01:00,56.2,55.1,29.79,SE,136,0.0,0.0,96,0.00,CLR,,0.05,WeatherDisplay:10.37,2013-09-23 06:01:00,
2013-09-22 23:07:00,56.1,55.0,29.79,SE,136,0.0,0.0,96,0.00,CLR,,0.05,WeatherDisplay:10.37,2013-09-23 06:07:00,
2013-09-22 23:12:00,56.1,55.0,29.79,SE,136,0.0,0.0,96,0.00,CLR,,0.05,WeatherDisplay:10.37,2013-09-23 06:12:00,
2013-09-22 23:17:00,56.0,54.9,29.80,SE,136,0.0,0.0,96,0.00,CLR,,0.05,WeatherDisplay:10.37,2013-09-23 06:17:00,
2013-09-22 23:22:00,55.9,54.8,29.79,SSE,162,3.5,3.5,96,0.00,CLR,,0.05,WeatherDisplay:10.37,2013-09-23 06:22:00,
2013-09-22 23:27:00,55.9,54.8,29.80,SSE,162,0.0,0.0,96,0.00,CLR,,0.05,WeatherDisplay:10.37,2013-09-23 06:27:00,
2013-09-22 23:32:00,56.0,54.9,29.80,SSE,162,0.0,0.0,96,0.00,CLR,,0.05,WeatherDisplay:10.37,2013-09-23 06:32:00,
2013-09-22 23:37:00,56.0,54.9,29.80,SSE,162,0.0,0.0,96,0.00,CLR,,0.05,WeatherDisplay:10.37,2013-09-23 06:37:00,
2013-09-22 23:42:00,56.1,55.3,29.80,SSE,162,0.0,0.0,97,0.00,CLR,,0.05,WeatherDisplay:10.37,2013-09-23 06:42:00,
2013-09-22 23:47:00,56.2,55.4,29.80,SSE,162,0.0,0.0,97,0.00,CLR,,0.05,WeatherDisplay:10.37,2013-09-23 06:47:00,
2013-09-22 23:52:00,56.3,55.5,29.80,SSE,162,0.0,0.0,97,0.00,CLR,,0.05,WeatherDisplay:10.37,2013-09-23 06:52:00,
2013-09-22 23:57:00,56.4,55.3,29.80,SSE,162,0.0,0.0,96,0.00,CLR,,0.05,WeatherDisplay:10.37,2013-09-23 06:57:00,